createdAt,value
2022-11-22T00:00:24.287Z,8.98
2022-11-22T00:01:45.687Z,8.76
2022-11-22T00:03:07.709Z,8.77
2022-11-22T00:04:29.147Z,6.83
2022-11-22T00:05:50.270Z,8.21
2022-11-22T00:07:11.336Z,8.78
2022-11-22T00:08:32.389Z,8.98
2022-11-22T00:09:53.530Z,8.04
2022-11-22T00:11:15.348Z,8.13
2022-11-22T00:12:37.683Z,8.21
2022-11-22T00:13:58.928Z,8.17
2022-11-22T00:15:20.452Z,8.62
2022-11-22T00:16:41.464Z,8.23
2022-11-22T00:18:03.230Z,9.22
2022-11-22T00:19:24.323Z,9.10
2022-11-22T00:20:45.772Z,9.70
2022-11-22T00:22:07.513Z,8.36
2022-11-22T00:23:28.592Z,9.17
2022-11-22T00:24:50.684Z,9.41
2022-11-22T00:26:11.788Z,8.80
2022-11-22T00:27:33.111Z,8.94
2022-11-22T00:28:54.604Z,8.05
2022-11-22T00:30:15.767Z,8.19
2022-11-22T00:31:36.884Z,8.23
2022-11-22T00:32:57.828Z,8.62
2022-11-22T00:34:19.307Z,8.03
2022-11-22T00:35:40.264Z,8.90
2022-11-22T00:37:01.860Z,8.24
2022-11-22T00:38:22.911Z,8.56
2022-11-22T00:39:44.594Z,8.80
2022-11-22T00:41:05.708Z,9.03
2022-11-22T00:42:27.057Z,9.15
2022-11-22T00:43:48.710Z,9.69
2022-11-22T00:45:10.001Z,9.17
2022-11-22T00:46:31.457Z,8.98
2022-11-22T00:47:52.891Z,9.13
2022-11-22T00:49:14.191Z,8.57
2022-11-22T00:50:36.942Z,9.08
2022-11-22T00:51:58.523Z,8.23
2022-11-22T00:53:19.715Z,9.56
2022-11-22T00:54:41.187Z,8.73
2022-11-22T00:56:02.887Z,9.45
2022-11-22T00:57:25.634Z,9.69
2022-11-22T00:58:47.094Z,9.56
2022-11-22T01:00:09.557Z,9.17
2022-11-22T01:01:32.907Z,7.27
2022-11-22T01:02:54.803Z,9.95
2022-11-22T01:04:15.824Z,9.14
2022-11-22T01:05:37.329Z,9.07
2022-11-22T01:06:58.614Z,9.61
2022-11-22T01:08:20.018Z,10.21
2022-11-22T01:09:41.011Z,9.36
2022-11-22T01:11:02.344Z,10.07
2022-11-22T01:12:23.712Z,9.93
2022-11-22T01:13:44.727Z,10.02
2022-11-22T01:15:06.480Z,8.95
2022-11-22T01:16:27.653Z,9.34
2022-11-22T01:17:49.067Z,9.28
2022-11-22T01:19:10.609Z,9.02
2022-11-22T01:20:31.970Z,9.51
2022-11-22T01:21:53.233Z,9.18
2022-11-22T01:23:14.144Z,9.02
2022-11-22T01:24:35.163Z,10.42
2022-11-22T01:25:56.650Z,9.89
2022-11-22T01:27:18.241Z,9.81
2022-11-22T01:28:39.856Z,9.29
2022-11-22T01:30:00.768Z,9.47
2022-11-22T01:31:22.225Z,8.72
2022-11-22T01:32:43.729Z,9.65
2022-11-22T01:34:05.297Z,9.34
2022-11-22T01:35:26.234Z,9.18
2022-11-22T01:36:47.704Z,9.00
2022-11-22T01:38:08.710Z,9.32
2022-11-22T01:39:30.201Z,8.99
2022-11-22T01:40:52.012Z,8.66
2022-11-22T01:42:13.333Z,9.02
2022-11-22T01:43:34.850Z,8.25
2022-11-22T01:44:59.638Z,7.71
2022-11-22T01:46:29.834Z,8.25
2022-11-22T01:47:50.977Z,7.84
2022-11-22T01:49:15.658Z,8.66
2022-11-22T01:50:37.232Z,9.77
2022-11-22T01:52:01.968Z,10.03
2022-11-22T01:53:26.915Z,9.58
2022-11-22T01:56:03.935Z,9.09
2022-11-22T01:57:27.938Z,7.51
2022-11-22T01:58:52.472Z,9.34
2022-11-22T02:00:15.284Z,8.97
2022-11-22T02:01:36.397Z,8.72
2022-11-22T02:02:59.041Z,8.93
2022-11-22T02:04:20.051Z,8.29
2022-11-22T02:05:41.367Z,9.61
2022-11-22T02:07:09.232Z,8.71
2022-11-22T02:08:42.927Z,9.24
2022-11-22T02:10:04.816Z,8.53
2022-11-22T02:11:29.610Z,9.56
2022-11-22T02:14:09.549Z,10.05
2022-11-22T02:15:30.613Z,9.39
2022-11-22T02:16:52.227Z,9.49
2022-11-22T02:18:13.518Z,8.57
2022-11-22T02:19:42.723Z,9.04
2022-11-22T02:21:04.105Z,8.49
2022-11-22T02:22:40.989Z,8.19
2022-11-22T02:24:18.292Z,8.34
2022-11-22T02:25:55.314Z,8.69
2022-11-22T02:27:17.189Z,9.25
2022-11-22T02:28:38.342Z,8.88
2022-11-22T02:29:59.519Z,9.55
2022-11-22T02:31:34.532Z,10.16
2022-11-22T02:32:55.919Z,9.45
2022-11-22T02:34:17.224Z,10.43
2022-11-22T02:35:38.666Z,11.16
2022-11-22T02:36:59.915Z,10.74
2022-11-22T02:38:25.713Z,10.91
2022-11-22T02:41:02.626Z,11.23
2022-11-22T02:42:25.362Z,10.27
2022-11-22T02:43:46.348Z,10.43
2022-11-22T02:45:08.163Z,11.12
2022-11-22T02:46:29.399Z,11.15
2022-11-22T02:47:50.614Z,10.62
2022-11-22T02:49:11.966Z,11.42
2022-11-22T02:50:33.199Z,10.74
2022-11-22T02:51:54.407Z,10.66
2022-11-22T02:53:15.763Z,10.88
2022-11-22T02:54:36.805Z,11.16
2022-11-22T02:55:58.040Z,11.06
2022-11-22T02:57:19.065Z,11.34
2022-11-22T02:58:40.304Z,11.51
2022-11-22T03:00:01.858Z,11.66
2022-11-22T03:01:23.470Z,11.47
2022-11-22T03:02:44.644Z,11.11
2022-11-22T03:04:05.920Z,11.08
2022-11-22T03:05:27.572Z,11.79
2022-11-22T03:06:48.754Z,11.08
2022-11-22T03:08:10.293Z,11.28
2022-11-22T03:09:32.037Z,11.12
2022-11-22T03:10:53.248Z,10.89
2022-11-22T03:12:14.798Z,11.39
2022-11-22T03:13:35.767Z,10.58
2022-11-22T03:14:57.077Z,10.90
2022-11-22T03:16:18.389Z,11.22
2022-11-22T03:17:39.370Z,11.64
2022-11-22T03:19:00.999Z,10.69
2022-11-22T03:20:22.453Z,11.03
2022-11-22T03:21:44.001Z,11.09
2022-11-22T03:23:05.299Z,10.34
2022-11-22T03:24:26.712Z,10.28
2022-11-22T03:25:48.124Z,9.69
2022-11-22T03:27:09.136Z,10.33
2022-11-22T03:28:30.117Z,10.01
2022-11-22T03:29:51.419Z,10.45
2022-11-22T03:31:12.388Z,9.13
2022-11-22T03:32:34.022Z,10.06
2022-11-22T03:33:55.506Z,9.07
2022-11-22T03:35:16.824Z,10.38
2022-11-22T03:36:37.745Z,9.89
2022-11-22T03:37:59.179Z,9.67
2022-11-22T03:40:29.517Z,10.02
2022-11-22T03:41:50.908Z,9.96
2022-11-22T03:43:12.481Z,10.37
2022-11-22T03:44:33.954Z,10.08
2022-11-22T03:45:55.467Z,9.86
2022-11-22T03:47:16.983Z,10.09
2022-11-22T03:48:38.296Z,9.94
2022-11-22T03:49:59.395Z,9.58
2022-11-22T03:51:20.893Z,9.62
2022-11-22T03:52:42.211Z,9.03
2022-11-22T03:54:03.854Z,8.92
2022-11-22T03:55:25.117Z,8.06
2022-11-22T03:56:46.151Z,8.53
2022-11-22T03:58:07.874Z,8.23
2022-11-22T03:59:29.522Z,8.01
2022-11-22T04:00:51.325Z,7.41
2022-11-22T04:02:12.741Z,8.58
2022-11-22T04:03:34.159Z,8.18
2022-11-22T04:04:55.733Z,9.21
2022-11-22T04:06:17.127Z,8.41
2022-11-22T04:07:38.694Z,9.66
2022-11-22T04:09:00.076Z,9.37
2022-11-22T04:10:24.232Z,9.19
2022-11-22T04:11:45.329Z,8.56
2022-11-22T04:13:06.813Z,8.88
2022-11-22T04:14:28.103Z,7.81
2022-11-22T04:15:49.502Z,8.97
2022-11-22T04:17:13.573Z,9.82
2022-11-22T04:18:34.936Z,10.59
2022-11-22T04:19:56.164Z,10.23
2022-11-22T04:21:17.611Z,9.79
2022-11-22T04:22:39.048Z,9.13
2022-11-22T04:24:02.912Z,9.98
2022-11-22T04:26:36.186Z,11.54
2022-11-22T04:27:57.700Z,10.71
2022-11-22T04:29:19.141Z,10.87
2022-11-22T04:30:40.678Z,10.70
2022-11-22T04:32:01.712Z,10.08
2022-11-22T04:33:23.059Z,9.44
2022-11-22T04:34:43.997Z,9.46
2022-11-22T04:36:08.959Z,8.43
2022-11-22T04:37:28.623Z,9.72
2022-11-22T04:38:49.911Z,9.46
2022-11-22T04:40:12.781Z,8.98
2022-11-22T04:41:34.066Z,8.02
2022-11-22T04:42:55.565Z,8.63
2022-11-22T04:44:16.660Z,8.65
2022-11-22T04:45:38.027Z,9.12
2022-11-22T04:46:59.570Z,8.99
2022-11-22T04:48:20.833Z,9.44
2022-11-22T04:49:42.580Z,9.33
2022-11-22T04:51:04.304Z,9.05
2022-11-22T04:52:25.633Z,9.03
2022-11-22T04:53:47.013Z,8.89
2022-11-22T04:55:08.360Z,9.14
2022-11-22T04:56:29.525Z,9.97
2022-11-22T04:57:55.954Z,9.17
2022-11-22T05:00:35.269Z,8.56
2022-11-22T05:01:56.346Z,9.33
2022-11-22T05:03:17.922Z,9.52
2022-11-22T05:04:39.480Z,9.59
2022-11-22T05:06:02.083Z,8.72
2022-11-22T05:07:23.560Z,9.81
2022-11-22T05:08:44.960Z,10.05
2022-11-22T05:10:07.447Z,10.07
2022-11-22T05:11:28.858Z,9.63
2022-11-22T05:12:50.068Z,10.51
2022-11-22T05:14:11.433Z,10.18
2022-11-22T05:15:32.667Z,11.96
2022-11-22T05:16:54.165Z,10.75
2022-11-22T05:18:15.206Z,12.58
2022-11-22T05:19:36.556Z,19.16
2022-11-22T09:36:13.662Z,17.58
2022-11-22T09:37:35.152Z,14.44
2022-11-22T09:38:56.629Z,13.02
2022-11-22T09:40:18.662Z,11.61
2022-11-22T09:43:00.182Z,10.34
2022-11-22T09:44:33.891Z,11.04
2022-11-22T09:46:05.299Z,10.81
2022-11-22T09:50:46.476Z,10.98
2022-11-22T09:52:11.411Z,10.52
2022-11-22T09:53:39.264Z,9.59
2022-11-22T09:56:24.521Z,7.74
2022-11-22T09:57:49.311Z,9.81
2022-11-22T09:59:25.329Z,9.32
2022-11-22T10:00:51.979Z,9.66
2022-11-22T10:03:59.935Z,9.34
2022-11-22T10:06:44.896Z,8.36
2022-11-22T10:09:45.524Z,8.88
2022-11-22T10:12:42.131Z,8.78
2022-11-22T10:14:06.945Z,8.97
2022-11-22T10:15:48.540Z,8.98
2022-11-22T10:17:13.325Z,8.94
2022-11-22T10:18:56.583Z,10.29
2022-11-22T10:20:19.532Z,10.17
2022-11-22T10:21:40.575Z,10.48
2022-11-22T10:23:01.747Z,10.94
2022-11-22T10:24:23.156Z,11.49
2022-11-22T10:25:59.084Z,10.71
2022-11-22T10:27:20.118Z,9.47
2022-11-22T10:29:10.331Z,9.83
2022-11-22T10:32:02.797Z,10.83
2022-11-22T10:33:41.322Z,9.97
2022-11-22T10:35:29.328Z,10.33
2022-11-22T10:37:00.013Z,10.33
2022-11-22T10:38:27.719Z,10.66
2022-11-22T10:40:07.952Z,11.50
2022-11-22T10:43:32.596Z,9.97
2022-11-22T10:46:19.445Z,12.89
2022-11-22T10:47:47.324Z,11.64
2022-11-22T10:49:21.730Z,11.51
2022-11-22T10:51:20.225Z,10.84
2022-11-22T10:53:00.042Z,12.50
2022-11-22T10:54:36.842Z,10.92
2022-11-22T10:58:59.394Z,10.97
2022-11-22T11:03:16.948Z,10.30
2022-11-22T11:04:38.505Z,10.07
2022-11-22T11:07:26.882Z,11.21
2022-11-22T11:11:32.821Z,11.47
2022-11-22T11:13:03.387Z,11.80
2022-11-22T11:14:34.123Z,10.73
2022-11-22T11:15:56.644Z,10.91
2022-11-22T11:17:20.696Z,11.06
2022-11-22T11:19:01.118Z,10.65
2022-11-22T11:21:43.998Z,8.17
2022-11-22T11:23:20.733Z,10.62
2022-11-22T11:24:29.384Z,10.94
2022-11-22T11:25:51.126Z,10.52
2022-11-22T11:27:12.432Z,9.92
2022-11-22T11:28:34.117Z,10.16
2022-11-22T11:30:00.782Z,10.98
2022-11-22T11:31:22.072Z,12.59
2022-11-22T11:32:55.865Z,11.68
2022-11-22T11:35:33.545Z,12.01
2022-11-22T11:36:56.517Z,11.19
2022-11-22T11:38:43.222Z,10.87
2022-11-22T11:40:05.272Z,10.78
2022-11-22T11:41:31.045Z,11.41
2022-11-22T11:43:12.747Z,10.96
2022-11-22T11:44:36.078Z,10.61
2022-11-22T11:46:01.412Z,11.86
2022-11-22T11:47:33.367Z,10.99
2022-11-22T11:49:14.712Z,10.02
2022-11-22T11:50:36.173Z,10.51
2022-11-22T11:53:25.048Z,10.36
2022-11-22T11:54:48.294Z,10.60
2022-11-22T11:57:37.758Z,10.48
2022-11-22T11:58:59.751Z,10.87
2022-11-22T12:01:53.132Z,10.63
2022-11-22T12:03:18.190Z,11.74
2022-11-22T12:04:57.908Z,11.63
2022-11-22T12:06:19.266Z,13.17
2022-11-22T12:07:43.074Z,11.87
2022-11-22T12:09:07.015Z,12.34
2022-11-22T12:10:37.830Z,12.86
2022-11-22T12:14:18.439Z,12.82
2022-11-22T12:15:38.014Z,14.65
2022-11-22T12:17:03.347Z,14.56
2022-11-22T12:19:59.254Z,23.29
2022-11-22T12:21:36.377Z,17.48
2022-11-22T12:23:04.012Z,13.96
2022-11-22T12:25:41.180Z,13.13
2022-11-22T12:27:03.596Z,14.68
2022-11-22T12:28:25.687Z,14.83
2022-11-22T12:29:46.865Z,15.16
2022-11-22T12:31:35.706Z,13.94
2022-11-22T12:32:59.627Z,14.27
2022-11-22T12:35:42.478Z,15.73
2022-11-22T12:37:07.438Z,12.82
2022-11-22T12:41:10.175Z,19.51
2022-11-22T12:43:50.753Z,13.77
2022-11-22T12:45:22.598Z,20.53
2022-11-22T12:46:48.044Z,15.07
2022-11-22T12:48:16.488Z,20.46
2022-11-22T12:49:41.463Z,22.45
2022-11-22T12:52:45.155Z,18.46
2022-11-22T12:54:10.458Z,17.27
2022-11-22T12:55:38.403Z,14.17
2022-11-22T12:57:03.758Z,17.77
2022-11-22T12:58:47.832Z,15.73
2022-11-22T13:00:21.845Z,13.59
2022-11-22T13:01:46.956Z,14.78
2022-11-22T13:16:45.472Z,12.14
2022-11-22T13:18:08.744Z,12.70
2022-11-22T13:19:30.262Z,13.19
2022-11-22T13:22:17.633Z,10.75
2022-11-22T13:23:57.625Z,11.82
2022-11-22T13:25:46.352Z,12.13
2022-11-22T13:27:28.968Z,12.47
2022-11-22T13:28:50.101Z,12.44
2022-11-22T13:30:19.677Z,13.90
2022-11-22T13:32:02.727Z,13.88
2022-11-22T13:33:25.266Z,14.84
2022-11-22T13:35:05.485Z,19.11
2022-11-22T13:36:34.698Z,17.98
2022-11-22T13:37:57.960Z,21.13
2022-11-22T13:39:21.847Z,16.75
2022-11-22T13:42:02.188Z,16.40
2022-11-22T13:43:54.075Z,17.81
2022-11-22T13:45:22.319Z,21.06
2022-11-22T13:46:53.069Z,18.99
2022-11-22T13:48:34.679Z,24.21
2022-11-22T13:49:56.348Z,23.42
2022-11-22T13:51:19.737Z,24.69
2022-11-22T13:52:51.050Z,25.38
2022-11-22T13:54:38.772Z,19.98
2022-11-22T13:56:21.914Z,18.55
2022-11-22T13:57:44.780Z,20.00
2022-11-22T13:59:14.152Z,39.54
2022-11-22T14:00:42.284Z,33.74
2022-11-22T14:02:06.452Z,34.02
2022-11-22T14:03:36.335Z,26.16
2022-11-22T14:05:00.045Z,25.60
2022-11-22T14:07:38.965Z,27.44
2022-11-22T14:09:37.175Z,30.94
2022-11-22T14:11:05.078Z,31.30
2022-11-22T14:12:50.876Z,32.62
2022-11-22T14:14:19.131Z,30.51
2022-11-22T14:17:43.864Z,31.60
2022-11-22T15:00:57.924Z,18.84
2022-11-22T15:02:34.785Z,18.91
2022-11-22T15:09:14.434Z,17.29
2022-11-22T15:09:19.925Z,22.02
2022-11-22T15:09:23.613Z,19.92
2022-11-22T15:09:25.761Z,18.02
2022-11-22T15:11:54.055Z,15.65
2022-11-22T15:13:19.067Z,16.79
2022-11-22T15:57:55.507Z,23.99
2022-11-22T15:59:25.896Z,26.52
2022-11-22T16:00:47.356Z,33.22
2022-11-22T16:02:13.995Z,27.84
2022-11-22T16:03:37.498Z,33.59
2022-11-22T16:06:04.716Z,34.39
2022-11-22T16:06:30.030Z,25.92
2022-11-22T16:07:51.331Z,26.74
2022-11-22T16:10:35.882Z,32.86
2022-11-22T16:11:57.353Z,35.87
2022-11-22T16:13:22.874Z,31.23
2022-11-22T16:14:48.308Z,40.15
2022-11-22T16:16:16.458Z,29.05
2022-11-22T16:17:41.408Z,31.13
2022-11-22T16:19:21.985Z,37.12
2022-11-22T16:21:05.745Z,31.69
2022-11-22T16:22:30.912Z,32.02
2022-11-22T16:24:09.744Z,33.88
2022-11-22T16:25:34.917Z,31.17
2022-11-22T16:27:05.356Z,29.19
2022-11-22T16:28:29.908Z,28.69
2022-11-22T16:29:51.387Z,29.82
2022-11-22T16:32:36.840Z,19.69
2022-11-22T16:33:58.241Z,24.82
2022-11-22T16:35:29.501Z,22.17
2022-11-22T16:36:43.434Z,22.61
2022-11-22T16:38:04.586Z,22.84
2022-11-22T16:39:25.640Z,22.83
2022-11-22T16:40:46.913Z,23.16
2022-11-22T16:42:08.351Z,19.68
2022-11-22T16:43:34.563Z,18.85
2022-11-22T16:45:00.925Z,17.80
2022-11-22T16:46:19.232Z,19.58
2022-11-22T16:47:40.662Z,43.21
2022-11-22T16:49:02.541Z,66.59
2022-11-22T16:50:23.587Z,86.89
2022-11-22T16:53:02.652Z,124.47
2022-11-22T16:54:23.210Z,31.67
2022-11-22T16:55:44.813Z,23.09
2022-11-22T16:57:14.173Z,21.24
2022-11-22T16:58:35.552Z,18.34
2022-11-22T16:59:58.993Z,22.45
2022-11-22T17:01:21.386Z,22.29
2022-11-22T19:46:36.044Z,37.62
2022-11-22T19:49:07.707Z,31.87
2022-11-22T19:50:28.773Z,21.12
2022-11-22T19:51:50.223Z,25.88
2022-11-22T19:53:12.716Z,36.30
2022-11-22T19:54:34.040Z,21.86
2022-11-22T19:55:57.338Z,16.37
2022-11-22T19:57:20.714Z,17.10
2022-11-22T20:00:04.349Z,14.32
2022-11-22T20:01:26.863Z,15.43
2022-11-22T20:02:48.273Z,27.82
2022-11-22T20:04:10.622Z,26.75
2022-11-22T20:05:32.317Z,15.10
2022-11-22T20:06:54.772Z,20.60
2022-11-22T20:08:17.119Z,15.94
2022-11-22T20:09:38.185Z,17.12
2022-11-22T20:11:04.280Z,17.63
2022-11-22T20:12:28.077Z,18.42
2022-11-22T20:13:49.612Z,14.34
2022-11-22T20:15:10.880Z,15.73
2022-11-22T20:16:32.303Z,14.72
2022-11-22T20:17:53.679Z,14.98
2022-11-22T20:19:15.549Z,14.09
2022-11-22T20:20:37.331Z,15.93
2022-11-22T20:21:58.719Z,14.56
2022-11-22T20:23:19.858Z,14.23
2022-11-22T20:24:41.095Z,14.30
2022-11-22T20:26:12.511Z,13.36
2022-11-22T20:27:33.717Z,13.33
2022-11-22T20:28:59.385Z,12.93
2022-11-22T20:30:20.622Z,12.68
2022-11-22T20:31:41.672Z,12.96
2022-11-22T20:33:03.274Z,13.42
2022-11-22T20:34:24.330Z,12.65
2022-11-22T20:35:45.445Z,14.93
2022-11-22T20:37:06.562Z,14.62
2022-11-22T20:38:32.863Z,14.10
2022-11-22T20:39:54.383Z,13.33
2022-11-22T20:41:16.358Z,12.87
2022-11-22T20:42:37.417Z,12.19
2022-11-22T20:43:58.659Z,13.43
2022-11-22T20:45:20.215Z,13.94
2022-11-22T20:46:41.840Z,15.88
2022-11-22T20:48:04.350Z,20.53
2022-11-22T20:49:25.704Z,14.28
2022-11-22T20:50:50.145Z,15.37
2022-11-22T20:52:11.552Z,13.40
2022-11-22T20:53:36.269Z,12.82
2022-11-22T20:55:03.380Z,12.58
2022-11-22T20:56:20.869Z,12.12
2022-11-22T20:57:42.303Z,11.47
2022-11-22T20:59:04.196Z,12.18
2022-11-22T21:00:25.277Z,11.92
2022-11-22T21:01:46.272Z,12.66
2022-11-22T21:03:07.912Z,11.87
2022-11-22T21:04:29.439Z,11.93
2022-11-22T21:05:53.384Z,12.61
2022-11-22T21:07:15.455Z,11.86
2022-11-22T21:08:37.202Z,11.82
2022-11-22T21:09:58.627Z,12.25
2022-11-22T21:11:26.717Z,11.49
2022-11-22T21:12:48.283Z,11.34
2022-11-22T21:14:09.399Z,11.24
2022-11-22T21:15:31.001Z,12.16
2022-11-22T21:16:52.421Z,11.58
2022-11-22T21:19:25.662Z,12.81
2022-11-22T21:20:47.020Z,11.17
2022-11-22T21:22:08.558Z,10.73
2022-11-22T21:23:32.626Z,10.59
2022-11-22T21:24:55.415Z,10.66
2022-11-22T21:26:17.461Z,10.72
2022-11-22T21:27:39.669Z,10.71
2022-11-22T21:29:04.518Z,8.84
2022-11-22T21:30:26.809Z,10.13
2022-11-22T21:31:48.303Z,9.74
2022-11-22T21:33:09.748Z,9.64
2022-11-22T21:34:31.273Z,9.55
2022-11-22T21:35:52.617Z,10.11
2022-11-22T21:37:14.087Z,8.61
2022-11-22T21:38:36.483Z,9.91
2022-11-22T21:39:57.904Z,9.11
2022-11-22T21:42:43.232Z,9.38
2022-11-22T21:44:05.112Z,9.28
2022-11-22T21:45:26.331Z,9.01
2022-11-22T21:46:47.927Z,9.58
2022-11-22T21:48:09.174Z,9.45
2022-11-22T21:49:30.570Z,9.81
2022-11-22T21:50:53.447Z,9.80
2022-11-22T21:52:15.223Z,10.33
2022-11-22T21:53:36.380Z,10.38
2022-11-22T21:54:57.849Z,9.71
2022-11-22T21:56:19.181Z,10.24
2022-11-22T21:57:40.715Z,9.73
2022-11-22T21:59:02.885Z,8.48
2022-11-22T22:01:35.549Z,10.58
2022-11-22T22:02:57.059Z,7.71
2022-11-22T22:04:20.773Z,10.12
2022-11-22T22:05:48.390Z,9.39
2022-11-22T22:07:29.628Z,9.61
2022-11-22T22:08:33.124Z,10.19
2022-11-22T22:09:54.520Z,9.81
2022-11-22T22:11:15.690Z,9.87
2022-11-22T22:12:37.438Z,9.93
2022-11-22T22:13:59.800Z,9.61
2022-11-22T22:15:21.345Z,9.27
2022-11-22T22:16:42.686Z,9.29
2022-11-22T22:18:04.388Z,9.42
2022-11-22T22:19:26.945Z,9.18
2022-11-22T22:20:52.133Z,7.34
2022-11-22T22:22:13.437Z,9.58
2022-11-22T22:23:36.061Z,8.70
2022-11-22T22:24:58.230Z,9.51
2022-11-22T22:26:19.756Z,9.12
2022-11-22T22:27:40.861Z,9.14
2022-11-22T22:29:02.617Z,8.94
2022-11-22T22:30:24.019Z,8.54
2022-11-22T22:31:45.528Z,9.29
2022-11-22T22:33:07.147Z,9.16
2022-11-22T22:34:30.356Z,7.89
2022-11-22T22:35:51.805Z,7.68
2022-11-22T22:37:13.164Z,7.79
2022-11-22T22:38:34.506Z,7.26
2022-11-22T22:39:57.444Z,7.71
2022-11-22T22:41:18.599Z,8.11
2022-11-22T22:42:39.941Z,7.73
2022-11-22T22:44:01.285Z,8.12
2022-11-22T22:45:22.900Z,7.81
2022-11-22T22:46:44.577Z,8.59
2022-11-22T22:48:05.646Z,8.32
2022-11-22T22:49:27.962Z,7.81
2022-11-22T22:50:49.096Z,8.26
2022-11-22T22:52:10.394Z,8.41
2022-11-22T22:53:31.435Z,7.74
2022-11-22T22:54:53.175Z,7.98
2022-11-22T22:56:15.470Z,7.98
2022-11-22T22:57:36.925Z,6.10
2022-11-22T22:58:58.539Z,8.08
2022-11-22T23:00:19.969Z,8.22
2022-11-22T23:01:41.474Z,7.76
2022-11-22T23:03:02.954Z,8.56
2022-11-22T23:04:24.247Z,8.59
2022-11-22T23:05:45.719Z,8.00
2022-11-22T23:07:06.910Z,7.82
2022-11-22T23:08:28.368Z,7.93
2022-11-22T23:09:49.630Z,8.03
2022-11-22T23:11:13.040Z,8.69
2022-11-22T23:13:55.065Z,7.39
2022-11-22T23:16:28.189Z,7.87
2022-11-22T23:17:49.581Z,7.26
2022-11-22T23:19:11.005Z,6.68
2022-11-22T23:20:32.285Z,6.82
2022-11-22T23:21:54.171Z,6.81
2022-11-22T23:23:15.461Z,6.29
2022-11-22T23:24:36.818Z,7.01
2022-11-22T23:27:13.336Z,6.71
2022-11-22T23:28:34.960Z,6.36
2022-11-22T23:29:56.375Z,6.76
2022-11-22T23:31:17.403Z,5.47
2022-11-22T23:32:38.437Z,6.72
2022-11-22T23:34:00.263Z,5.58
2022-11-22T23:35:21.653Z,6.18
2022-11-22T23:36:42.609Z,5.53
2022-11-22T23:38:04.111Z,5.67
2022-11-22T23:39:25.073Z,7.34
2022-11-22T23:40:52.415Z,6.75
2022-11-22T23:42:13.473Z,5.70
2022-11-22T23:43:34.500Z,5.37
2022-11-22T23:44:56.090Z,5.62
2022-11-22T23:46:17.434Z,5.51
2022-11-22T23:47:39.033Z,5.32
2022-11-22T23:49:00.552Z,6.06
2022-11-22T23:50:21.504Z,5.76
2022-11-22T23:51:43.042Z,5.21
2022-11-22T23:53:04.605Z,5.53
2022-11-22T23:54:26.181Z,5.81
2022-11-22T23:55:47.575Z,5.44
2022-11-22T23:57:09.162Z,5.18
2022-11-22T23:58:30.434Z,5.65
2022-11-22T23:59:51.649Z,5.53
